map of AGA home
AGA - Airport
Location
City:  Agadir, Chaouia-Ouardigha, Morocco
Name:Al Massira International Airport
ICAO:GMAD
IATA:AGA

Details
Type:Airport (Aerodrome, Airfield)
Use:Public/Civil, International (customs port of entry)
Latitude:3019'21"N (30.322500)
Longitude:924'41"W (-9.411388)
Elevation:253 ft (77 m)
Variation:2.36W (WMM2015 magnetic declination)
0.11 annual change
Runways:1
Longest:10499 × 148 ft (3200 × 45 m), paved

Time
Time Zone:UTC+0 (DST+1)
Local Time:

Weather
METAR:GMAD 162130Z 16006KT CAVOK 11/08 Q1018 NOSIG
TAF:GMAD 161700Z 1618/1724 26013KT 9999 FEW030= TAF LFBD 161700Z 1618/1724 20004KT 9999 BKN030
TEMPO 1619/1702 4000 -RADZ OVC005
BECMG 1702/1704 3000 BR NSC
TEMPO 1706/1712 4000 -SHRA BKN020
BECMG 1712/1714 9999 NSW SCT025

Related Locations
Nearby:
Farthest:NLK: 12259 mi / 19729 km
Norfolk Island, NF

Find:

   beyond  
but within

Other Information
Maps:
NOTAMs:
Links:
Sources:

  
  • flag of Morocco
  

Sectional Chart

Flight Planning
at skyvector.com

Satellite Image

Google Maps Satellite view

 

Copyright © 2004-2019 Karl L. Swartz. All rights reserved.
The Great Circle Mapper name and logo are trademarks of the Great Circle Mapper.
All other trademarks mentioned herein belong to their respective owners.
Please see credits for attibutions and further copyright information.

  Follow gcmap on Facebook Follow gcmap on Twitter Follow gcmap on Google+ GCmap on LinkedIn

hCard Microformat

Geo Microformat